Terminal Aerodrome Forecast
Issued by NWS Bismarck, ND

Home | Current Version | Previous Version | Graphics & Text | Print | Product List | Glossary On
Versions: 1 2 3 4 5 6 7 8 9 10 11 12 13 14 15 16 17 18 19 20 21 22 23 24 25 26
000
FTUS43 KBIS 231400 AAB
TAFISN
TAF AMD
KISN 231426Z 2314/2412 30019G32KT 1SM -SN OVC015
     FM231600 31026G35KT 5SM -SN BLSN OVC015
     FM232200 32020G28KT P6SM OVC015
     FM240300 32010KT P6SM OVC025=

USA.gov is the U.S. government's official web portal to all federal, state and local government web resources and services.